sensor_id;sensor_type;location;lat;lon;timestamp;P1;durP1;ratioP1;P2;durP2;ratioP2
19609;SDS011;9952;47.122;-1.638;2022-12-29T00:00:29;19.40;;;2.07;;
19609;SDS011;9952;47.122;-1.638;2022-12-29T00:05:10;19.17;;;2.97;;
19609;SDS011;9952;47.122;-1.638;2022-12-29T00:09:51;18.00;;;2.40;;
19609;SDS011;9952;47.122;-1.638;2022-12-29T00:14:32;18.33;;;2.40;;
19609;SDS011;9952;47.122;-1.638;2022-12-29T00:19:31;18.87;;;1.97;;
19609;SDS011;9952;47.122;-1.638;2022-12-29T00:24:30;11.73;;;2.20;;
19609;SDS011;9952;47.122;-1.638;2022-12-29T00:29:16;16.00;;;2.23;;
19609;SDS011;9952;47.122;-1.638;2022-12-29T00:34:16;19.30;;;2.07;;
19609;SDS011;9952;47.122;-1.638;2022-12-29T00:39:16;15.03;;;2.13;;
19609;SDS011;9952;47.122;-1.638;2022-12-29T00:44:16;12.60;;;2.40;;
19609;SDS011;9952;47.122;-1.638;2022-12-29T00:48:57;16.30;;;2.40;;
19609;SDS011;9952;47.122;-1.638;2022-12-29T00:53:56;16.87;;;1.80;;
19609;SDS011;9952;47.122;-1.638;2022-12-29T00:58:37;21.00;;;2.50;;
19609;SDS011;9952;47.122;-1.638;2022-12-29T01:03:18;18.60;;;2.17;;
19609;SDS011;9952;47.122;-1.638;2022-12-29T01:07:59;16.00;;;2.27;;
19609;SDS011;9952;47.122;-1.638;2022-12-29T01:12:39;18.07;;;2.70;;
19609;SDS011;9952;47.122;-1.638;2022-12-29T01:17:20;15.53;;;2.40;;
19609;SDS011;9952;47.122;-1.638;2022-12-29T01:22:01;11.57;;;2.10;;
19609;SDS011;9952;47.122;-1.638;2022-12-29T01:26:42;26.10;;;3.13;;
19609;SDS011;9952;47.122;-1.638;2022-12-29T01:31:23;30.43;;;3.70;;
19609;SDS011;9952;47.122;-1.638;2022-12-29T01:36:04;19.30;;;3.20;;
19609;SDS011;9952;47.122;-1.638;2022-12-29T01:40:47;25.03;;;3.27;;
19609;SDS011;9952;47.122;-1.638;2022-12-29T01:45:28;28.63;;;3.93;;
19609;SDS011;9952;47.122;-1.638;2022-12-29T01:50:16;27.97;;;3.23;;
19609;SDS011;9952;47.122;-1.638;2022-12-29T01:54:58;28.83;;;3.77;;
19609;SDS011;9952;47.122;-1.638;2022-12-29T01:59:43;32.23;;;3.73;;
19609;SDS011;9952;47.122;-1.638;2022-12-29T02:04:31;25.93;;;4.03;;
19609;SDS011;9952;47.122;-1.638;2022-12-29T02:09:13;28.37;;;3.83;;
19609;SDS011;9952;47.122;-1.638;2022-12-29T02:13:54;27.00;;;3.83;;
19609;SDS011;9952;47.122;-1.638;2022-12-29T02:39:12;30.23;;;4.07;;
19609;SDS011;9952;47.122;-1.638;2022-12-29T02:44:21;26.23;;;3.23;;
19609;SDS011;9952;47.122;-1.638;2022-12-29T02:54:54;29.90;;;5.00;;
19609;SDS011;9952;47.122;-1.638;2022-12-29T02:59:35;24.43;;;4.13;;
19609;SDS011;9952;47.122;-1.638;2022-12-29T03:14:49;17.00;;;2.87;;
19609;SDS011;9952;47.122;-1.638;2022-12-29T03:20:17;22.10;;;3.17;;
19609;SDS011;9952;47.122;-1.638;2022-12-29T03:25:03;26.07;;;3.13;;
19609;SDS011;9952;47.122;-1.638;2022-12-29T03:29:57;19.33;;;2.50;;
19609;SDS011;9952;47.122;-1.638;2022-12-29T03:34:41;22.07;;;2.83;;
19609;SDS011;9952;47.122;-1.638;2022-12-29T03:39:22;25.13;;;4.27;;
19609;SDS011;9952;47.122;-1.638;2022-12-29T03:44:05;22.83;;;3.30;;
19609;SDS011;9952;47.122;-1.638;2022-12-29T03:48:46;24.57;;;3.80;;
19609;SDS011;9952;47.122;-1.638;2022-12-29T03:53:27;26.67;;;4.13;;
19609;SDS011;9952;47.122;-1.638;2022-12-29T03:58:08;24.53;;;3.23;;
19609;SDS011;9952;47.122;-1.638;2022-12-29T04:02:49;17.70;;;2.63;;
19609;SDS011;9952;47.122;-1.638;2022-12-29T04:07:30;20.87;;;3.27;;
19609;SDS011;9952;47.122;-1.638;2022-12-29T04:12:10;21.90;;;3.40;;
19609;SDS011;9952;47.122;-1.638;2022-12-29T04:16:51;24.10;;;2.83;;
19609;SDS011;9952;47.122;-1.638;2022-12-29T04:21:32;17.93;;;2.40;;
19609;SDS011;9952;47.122;-1.638;2022-12-29T04:26:13;19.20;;;1.97;;
19609;SDS011;9952;47.122;-1.638;2022-12-29T04:30:54;16.37;;;2.57;;
19609;SDS011;9952;47.122;-1.638;2022-12-29T04:35:35;14.53;;;1.93;;
19609;SDS011;9952;47.122;-1.638;2022-12-29T04:40:15;19.27;;;3.57;;
19609;SDS011;9952;47.122;-1.638;2022-12-29T04:44:56;13.37;;;2.13;;
19609;SDS011;9952;47.122;-1.638;2022-12-29T04:49:37;15.27;;;2.33;;
19609;SDS011;9952;47.122;-1.638;2022-12-29T04:54:18;17.80;;;2.83;;
19609;SDS011;9952;47.122;-1.638;2022-12-29T04:58:58;20.43;;;2.83;;
19609;SDS011;9952;47.122;-1.638;2022-12-29T05:03:39;26.97;;;2.77;;
19609;SDS011;9952;47.122;-1.638;2022-12-29T05:08:20;18.33;;;2.43;;
19609;SDS011;9952;47.122;-1.638;2022-12-29T05:13:01;15.73;;;2.70;;
19609;SDS011;9952;47.122;-1.638;2022-12-29T05:17:42;21.10;;;3.20;;
19609;SDS011;9952;47.122;-1.638;2022-12-29T05:22:23;21.47;;;3.40;;
19609;SDS011;9952;47.122;-1.638;2022-12-29T05:27:04;27.57;;;3.30;;
19609;SDS011;9952;47.122;-1.638;2022-12-29T05:31:45;19.17;;;2.03;;
19609;SDS011;9952;47.122;-1.638;2022-12-29T05:36:25;17.40;;;2.97;;
19609;SDS011;9952;47.122;-1.638;2022-12-29T05:41:06;17.93;;;2.23;;
19609;SDS011;9952;47.122;-1.638;2022-12-29T05:45:50;16.03;;;2.17;;
19609;SDS011;9952;47.122;-1.638;2022-12-29T05:50:31;17.47;;;2.47;;
19609;SDS011;9952;47.122;-1.638;2022-12-29T05:55:12;20.23;;;2.67;;
19609;SDS011;9952;47.122;-1.638;2022-12-29T05:59:53;17.37;;;2.10;;
19609;SDS011;9952;47.122;-1.638;2022-12-29T06:04:34;20.60;;;2.93;;
19609;SDS011;9952;47.122;-1.638;2022-12-29T06:09:14;18.07;;;3.23;;
19609;SDS011;9952;47.122;-1.638;2022-12-29T06:13:55;16.27;;;2.70;;
19609;SDS011;9952;47.122;-1.638;2022-12-29T06:18:36;19.60;;;2.43;;
19609;SDS011;9952;47.122;-1.638;2022-12-29T06:23:17;20.53;;;2.87;;
19609;SDS011;9952;47.122;-1.638;2022-12-29T06:27:58;13.67;;;2.73;;
19609;SDS011;9952;47.122;-1.638;2022-12-29T06:32:40;18.10;;;2.53;;
19609;SDS011;9952;47.122;-1.638;2022-12-29T06:37:21;17.87;;;2.40;;
19609;SDS011;9952;47.122;-1.638;2022-12-29T06:42:01;17.30;;;3.30;;
19609;SDS011;9952;47.122;-1.638;2022-12-29T06:46:42;18.50;;;3.07;;
19609;SDS011;9952;47.122;-1.638;2022-12-29T06:51:23;23.37;;;2.70;;
19609;SDS011;9952;47.122;-1.638;2022-12-29T06:56:04;17.10;;;2.10;;
19609;SDS011;9952;47.122;-1.638;2022-12-29T07:00:45;24.63;;;3.60;;
19609;SDS011;9952;47.122;-1.638;2022-12-29T07:05:26;22.70;;;3.33;;
19609;SDS011;9952;47.122;-1.638;2022-12-29T07:10:07;27.40;;;4.03;;
19609;SDS011;9952;47.122;-1.638;2022-12-29T07:14:48;26.50;;;2.93;;
19609;SDS011;9952;47.122;-1.638;2022-12-29T07:19:29;21.43;;;3.53;;
19609;SDS011;9952;47.122;-1.638;2022-12-29T07:24:10;24.93;;;2.87;;
19609;SDS011;9952;47.122;-1.638;2022-12-29T07:28:50;25.77;;;3.20;;
19609;SDS011;9952;47.122;-1.638;2022-12-29T07:33:31;20.07;;;2.60;;
19609;SDS011;9952;47.122;-1.638;2022-12-29T07:38:13;14.03;;;2.40;;
19609;SDS011;9952;47.122;-1.638;2022-12-29T07:42:53;20.87;;;3.60;;
19609;SDS011;9952;47.122;-1.638;2022-12-29T07:47:34;13.97;;;1.77;;
19609;SDS011;9952;47.122;-1.638;2022-12-29T07:52:15;16.37;;;2.10;;
19609;SDS011;9952;47.122;-1.638;2022-12-29T07:56:56;14.67;;;1.63;;
19609;SDS011;9952;47.122;-1.638;2022-12-29T08:01:37;18.20;;;2.77;;
19609;SDS011;9952;47.122;-1.638;2022-12-29T08:06:18;20.03;;;2.23;;
19609;SDS011;9952;47.122;-1.638;2022-12-29T08:11:00;14.97;;;1.90;;
19609;SDS011;9952;47.122;-1.638;2022-12-29T08:15:40;18.43;;;2.27;;
19609;SDS011;9952;47.122;-1.638;2022-12-29T08:20:21;15.47;;;2.27;;
19609;SDS011;9952;47.122;-1.638;2022-12-29T08:25:02;16.63;;;2.37;;
19609;SDS011;9952;47.122;-1.638;2022-12-29T08:29:43;16.20;;;2.30;;
19609;SDS011;9952;47.122;-1.638;2022-12-29T08:34:24;14.90;;;2.50;;
19609;SDS011;9952;47.122;-1.638;2022-12-29T08:39:05;14.40;;;2.20;;
19609;SDS011;9952;47.122;-1.638;2022-12-29T08:43:46;11.57;;;1.97;;
19609;SDS011;9952;47.122;-1.638;2022-12-29T08:48:28;17.63;;;2.37;;
19609;SDS011;9952;47.122;-1.638;2022-12-29T08:53:08;19.03;;;2.10;;
19609;SDS011;9952;47.122;-1.638;2022-12-29T08:57:50;14.57;;;1.97;;
19609;SDS011;9952;47.122;-1.638;2022-12-29T09:02:31;15.07;;;2.03;;
19609;SDS011;9952;47.122;-1.638;2022-12-29T09:07:12;11.23;;;2.10;;
19609;SDS011;9952;47.122;-1.638;2022-12-29T09:11:52;11.00;;;1.60;;
19609;SDS011;9952;47.122;-1.638;2022-12-29T09:16:33;21.07;;;3.20;;
19609;SDS011;9952;47.122;-1.638;2022-12-29T09:21:16;19.83;;;2.50;;
19609;SDS011;9952;47.122;-1.638;2022-12-29T09:26:05;14.43;;;2.63;;
19609;SDS011;9952;47.122;-1.638;2022-12-29T09:30:47;17.03;;;2.90;;
19609;SDS011;9952;47.122;-1.638;2022-12-29T09:35:28;12.90;;;2.50;;
19609;SDS011;9952;47.122;-1.638;2022-12-29T09:40:16;19.63;;;3.23;;
19609;SDS011;9952;47.122;-1.638;2022-12-29T09:54:52;15.07;;;3.37;;
19609;SDS011;9952;47.122;-1.638;2022-12-29T09:59:43;13.63;;;2.20;;
19609;SDS011;9952;47.122;-1.638;2022-12-29T10:04:26;10.10;;;1.87;;
19609;SDS011;9952;47.122;-1.638;2022-12-29T10:19:22;8.53;;;1.97;;
19609;SDS011;9952;47.122;-1.638;2022-12-29T10:24:16;13.40;;;1.83;;
19609;SDS011;9952;47.122;-1.638;2022-12-29T10:29:03;12.37;;;1.93;;
19609;SDS011;9952;47.122;-1.638;2022-12-29T10:33:56;14.67;;;2.10;;
19609;SDS011;9952;47.122;-1.638;2022-12-29T10:38:42;11.37;;;1.50;;
19609;SDS011;9952;47.122;-1.638;2022-12-29T10:43:37;15.77;;;1.83;;
19609;SDS011;9952;47.122;-1.638;2022-12-29T10:48:35;12.10;;;2.00;;
19609;SDS011;9952;47.122;-1.638;2022-12-29T10:53:19;14.70;;;1.70;;
19609;SDS011;9952;47.122;-1.638;2022-12-29T10:58:05;16.97;;;2.10;;
19609;SDS011;9952;47.122;-1.638;2022-12-29T11:07:50;17.33;;;2.47;;
19609;SDS011;9952;47.122;-1.638;2022-12-29T11:12:36;17.13;;;2.57;;
19609;SDS011;9952;47.122;-1.638;2022-12-29T11:17:57;17.00;;;2.03;;
19609;SDS011;9952;47.122;-1.638;2022-12-29T11:22:39;12.27;;;2.00;;
19609;SDS011;9952;47.122;-1.638;2022-12-29T11:27:24;14.47;;;2.63;;
19609;SDS011;9952;47.122;-1.638;2022-12-29T11:37:14;11.90;;;2.10;;
19609;SDS011;9952;47.122;-1.638;2022-12-29T11:42:01;15.27;;;2.87;;
19609;SDS011;9952;47.122;-1.638;2022-12-29T11:46:44;15.30;;;2.20;;
19609;SDS011;9952;47.122;-1.638;2022-12-29T11:51:30;15.97;;;2.30;;
19609;SDS011;9952;47.122;-1.638;2022-12-29T11:56:33;13.73;;;2.23;;
19609;SDS011;9952;47.122;-1.638;2022-12-29T12:01:33;14.70;;;1.93;;
19609;SDS011;9952;47.122;-1.638;2022-12-29T12:06:19;16.07;;;2.20;;
19609;SDS011;9952;47.122;-1.638;2022-12-29T12:15:52;13.67;;;2.30;;
19609;SDS011;9952;47.122;-1.638;2022-12-29T12:20:54;15.27;;;2.40;;
19609;SDS011;9952;47.122;-1.638;2022-12-29T12:26:02;15.60;;;2.80;;
19609;SDS011;9952;47.122;-1.638;2022-12-29T12:30:53;15.20;;;2.10;;
19609;SDS011;9952;47.122;-1.638;2022-12-29T12:55:41;13.60;;;1.70;;
19609;SDS011;9952;47.122;-1.638;2022-12-29T13:00:34;13.07;;;1.90;;
19609;SDS011;9952;47.122;-1.638;2022-12-29T13:20:30;14.07;;;2.00;;
19609;SDS011;9952;47.122;-1.638;2022-12-29T13:25:27;9.57;;;2.00;;
19609;SDS011;9952;47.122;-1.638;2022-12-29T13:30:26;6.33;;;1.53;;
19609;SDS011;9952;47.122;-1.638;2022-12-29T13:40:22;11.90;;;2.03;;
19609;SDS011;9952;47.122;-1.638;2022-12-29T13:45:06;14.70;;;2.20;;
19609;SDS011;9952;47.122;-1.638;2022-12-29T13:49:52;9.77;;;2.43;;
19609;SDS011;9952;47.122;-1.638;2022-12-29T13:59:40;10.10;;;1.80;;
19609;SDS011;9952;47.122;-1.638;2022-12-29T14:04:30;20.03;;;2.83;;
19609;SDS011;9952;47.122;-1.638;2022-12-29T14:09:28;14.87;;;1.90;;
19609;SDS011;9952;47.122;-1.638;2022-12-29T14:14:23;18.77;;;3.03;;
19609;SDS011;9952;47.122;-1.638;2022-12-29T14:29:16;19.47;;;2.73;;
19609;SDS011;9952;47.122;-1.638;2022-12-29T14:44:21;14.37;;;2.50;;
19609;SDS011;9952;47.122;-1.638;2022-12-29T14:49:02;16.20;;;3.20;;
19609;SDS011;9952;47.122;-1.638;2022-12-29T14:53:50;14.50;;;2.20;;
19609;SDS011;9952;47.122;-1.638;2022-12-29T14:58:32;13.73;;;2.33;;
19609;SDS011;9952;47.122;-1.638;2022-12-29T15:08:38;7.53;;;1.40;;
19609;SDS011;9952;47.122;-1.638;2022-12-29T15:13:39;18.37;;;1.50;;
19609;SDS011;9952;47.122;-1.638;2022-12-29T15:18:24;11.93;;;1.73;;
19609;SDS011;9952;47.122;-1.638;2022-12-29T15:23:10;11.37;;;1.80;;
19609;SDS011;9952;47.122;-1.638;2022-12-29T15:27:56;9.47;;;1.10;;
19609;SDS011;9952;47.122;-1.638;2022-12-29T15:32:43;6.37;;;0.60;;
19609;SDS011;9952;47.122;-1.638;2022-12-29T15:37:25;1.53;;;0.30;;
19609;SDS011;9952;47.122;-1.638;2022-12-29T15:47:18;5.03;;;3.33;;
19609;SDS011;9952;47.122;-1.638;2022-12-29T15:52:01;3.17;;;0.97;;
19609;SDS011;9952;47.122;-1.638;2022-12-29T15:56:47;4.80;;;2.10;;
19609;SDS011;9952;47.122;-1.638;2022-12-29T16:01:31;5.73;;;1.10;;
19609;SDS011;9952;47.122;-1.638;2022-12-29T16:06:32;4.67;;;1.50;;
19609;SDS011;9952;47.122;-1.638;2022-12-29T16:11:20;2.90;;;1.17;;
19609;SDS011;9952;47.122;-1.638;2022-12-29T16:20:55;11.80;;;3.60;;
19609;SDS011;9952;47.122;-1.638;2022-12-29T16:25:37;7.57;;;1.87;;
19609;SDS011;9952;47.122;-1.638;2022-12-29T16:35:12;2.63;;;0.47;;
19609;SDS011;9952;47.122;-1.638;2022-12-29T16:50:10;4.17;;;1.57;;
19609;SDS011;9952;47.122;-1.638;2022-12-29T16:54:58;4.27;;;2.10;;
19609;SDS011;9952;47.122;-1.638;2022-12-29T16:59:41;3.70;;;1.90;;
19609;SDS011;9952;47.122;-1.638;2022-12-29T17:04:22;6.87;;;1.50;;
19609;SDS011;9952;47.122;-1.638;2022-12-29T17:09:16;7.70;;;1.00;;
19609;SDS011;9952;47.122;-1.638;2022-12-29T17:14:01;10.80;;;3.87;;
19609;SDS011;9952;47.122;-1.638;2022-12-29T17:18:42;10.97;;;2.27;;
19609;SDS011;9952;47.122;-1.638;2022-12-29T17:23:22;4.93;;;1.80;;
19609;SDS011;9952;47.122;-1.638;2022-12-29T17:33:02;13.27;;;4.67;;
19609;SDS011;9952;47.122;-1.638;2022-12-29T17:37:49;25.83;;;9.10;;
19609;SDS011;9952;47.122;-1.638;2022-12-29T17:42:31;13.27;;;3.60;;
19609;SDS011;9952;47.122;-1.638;2022-12-29T17:47:13;11.97;;;2.50;;
19609;SDS011;9952;47.122;-1.638;2022-12-29T17:51:55;12.63;;;2.57;;
19609;SDS011;9952;47.122;-1.638;2022-12-29T17:56:36;11.77;;;2.30;;
19609;SDS011;9952;47.122;-1.638;2022-12-29T18:01:17;16.97;;;2.90;;
19609;SDS011;9952;47.122;-1.638;2022-12-29T18:06:01;8.17;;;1.83;;
19609;SDS011;9952;47.122;-1.638;2022-12-29T18:10:45;9.97;;;2.20;;
19609;SDS011;9952;47.122;-1.638;2022-12-29T18:15:30;12.67;;;2.00;;
19609;SDS011;9952;47.122;-1.638;2022-12-29T18:20:16;7.60;;;1.90;;
19609;SDS011;9952;47.122;-1.638;2022-12-29T18:24:58;13.33;;;2.87;;
19609;SDS011;9952;47.122;-1.638;2022-12-29T18:29:41;14.00;;;2.17;;
19609;SDS011;9952;47.122;-1.638;2022-12-29T18:34:21;6.27;;;1.50;;
19609;SDS011;9952;47.122;-1.638;2022-12-29T18:39:02;8.93;;;3.43;;
19609;SDS011;9952;47.122;-1.638;2022-12-29T18:43:43;16.97;;;5.97;;
19609;SDS011;9952;47.122;-1.638;2022-12-29T18:48:24;14.30;;;2.50;;
19609;SDS011;9952;47.122;-1.638;2022-12-29T18:53:05;14.03;;;1.47;;
19609;SDS011;9952;47.122;-1.638;2022-12-29T18:57:46;11.30;;;1.33;;
19609;SDS011;9952;47.122;-1.638;2022-12-29T19:02:27;11.00;;;1.33;;
19609;SDS011;9952;47.122;-1.638;2022-12-29T19:07:07;10.57;;;1.47;;
19609;SDS011;9952;47.122;-1.638;2022-12-29T19:11:48;6.53;;;1.10;;
19609;SDS011;9952;47.122;-1.638;2022-12-29T19:16:29;12.47;;;2.20;;
19609;SDS011;9952;47.122;-1.638;2022-12-29T19:21:10;4.93;;;1.20;;
19609;SDS011;9952;47.122;-1.638;2022-12-29T19:25:52;4.20;;;1.13;;
19609;SDS011;9952;47.122;-1.638;2022-12-29T19:30:34;4.20;;;1.17;;
19609;SDS011;9952;47.122;-1.638;2022-12-29T19:35:15;5.43;;;1.03;;
19609;SDS011;9952;47.122;-1.638;2022-12-29T19:39:56;4.67;;;1.40;;
19609;SDS011;9952;47.122;-1.638;2022-12-29T19:44:37;8.00;;;1.90;;
19609;SDS011;9952;47.122;-1.638;2022-12-29T19:49:18;11.80;;;3.47;;
19609;SDS011;9952;47.122;-1.638;2022-12-29T19:53:58;12.60;;;3.63;;
19609;SDS011;9952;47.122;-1.638;2022-12-29T19:58:39;6.20;;;2.93;;
19609;SDS011;9952;47.122;-1.638;2022-12-29T20:03:20;9.50;;;4.37;;
19609;SDS011;9952;47.122;-1.638;2022-12-29T20:08:01;12.93;;;5.80;;
19609;SDS011;9952;47.122;-1.638;2022-12-29T20:12:42;6.30;;;2.53;;
19609;SDS011;9952;47.122;-1.638;2022-12-29T20:17:24;6.20;;;1.90;;
19609;SDS011;9952;47.122;-1.638;2022-12-29T20:22:05;5.27;;;2.93;;
19609;SDS011;9952;47.122;-1.638;2022-12-29T20:26:47;6.70;;;3.20;;
19609;SDS011;9952;47.122;-1.638;2022-12-29T20:31:30;9.03;;;3.23;;
19609;SDS011;9952;47.122;-1.638;2022-12-29T20:36:13;9.63;;;3.33;;
19609;SDS011;9952;47.122;-1.638;2022-12-29T20:40:56;9.07;;;3.20;;
19609;SDS011;9952;47.122;-1.638;2022-12-29T20:45:37;6.07;;;3.07;;
19609;SDS011;9952;47.122;-1.638;2022-12-29T20:50:19;9.73;;;3.80;;
19609;SDS011;9952;47.122;-1.638;2022-12-29T20:55:00;7.13;;;3.93;;
19609;SDS011;9952;47.122;-1.638;2022-12-29T20:59:40;8.00;;;4.33;;
19609;SDS011;9952;47.122;-1.638;2022-12-29T21:04:22;12.20;;;5.70;;
19609;SDS011;9952;47.122;-1.638;2022-12-29T21:09:03;12.20;;;5.60;;
19609;SDS011;9952;47.122;-1.638;2022-12-29T21:13:44;10.03;;;3.63;;
19609;SDS011;9952;47.122;-1.638;2022-12-29T21:18:26;7.97;;;3.60;;
19609;SDS011;9952;47.122;-1.638;2022-12-29T21:23:08;12.23;;;4.47;;
19609;SDS011;9952;47.122;-1.638;2022-12-29T21:27:51;10.67;;;3.53;;
19609;SDS011;9952;47.122;-1.638;2022-12-29T21:32:31;16.13;;;4.07;;
19609;SDS011;9952;47.122;-1.638;2022-12-29T21:37:12;13.53;;;4.37;;
19609;SDS011;9952;47.122;-1.638;2022-12-29T21:41:53;12.03;;;4.43;;
19609;SDS011;9952;47.122;-1.638;2022-12-29T21:46:39;23.07;;;4.50;;
19609;SDS011;9952;47.122;-1.638;2022-12-29T21:51:22;9.87;;;4.27;;
19609;SDS011;9952;47.122;-1.638;2022-12-29T21:56:21;14.00;;;5.07;;
19609;SDS011;9952;47.122;-1.638;2022-12-29T22:01:02;17.80;;;5.60;;
19609;SDS011;9952;47.122;-1.638;2022-12-29T22:06:01;22.40;;;5.40;;
19609;SDS011;9952;47.122;-1.638;2022-12-29T22:11:04;21.97;;;5.67;;
19609;SDS011;9952;47.122;-1.638;2022-12-29T22:16:06;17.13;;;5.00;;
19609;SDS011;9952;47.122;-1.638;2022-12-29T22:20:51;26.70;;;5.10;;
19609;SDS011;9952;47.122;-1.638;2022-12-29T22:25:31;16.17;;;4.60;;
19609;SDS011;9952;47.122;-1.638;2022-12-29T22:30:12;18.67;;;4.60;;
19609;SDS011;9952;47.122;-1.638;2022-12-29T22:34:54;19.00;;;4.23;;
19609;SDS011;9952;47.122;-1.638;2022-12-29T22:39:35;15.13;;;4.03;;
19609;SDS011;9952;47.122;-1.638;2022-12-29T22:44:15;22.63;;;4.07;;
19609;SDS011;9952;47.122;-1.638;2022-12-29T22:48:56;20.03;;;3.83;;
19609;SDS011;9952;47.122;-1.638;2022-12-29T22:53:37;21.03;;;4.83;;
19609;SDS011;9952;47.122;-1.638;2022-12-29T22:58:19;14.97;;;4.23;;
19609;SDS011;9952;47.122;-1.638;2022-12-29T23:03:00;22.57;;;5.20;;
19609;SDS011;9952;47.122;-1.638;2022-12-29T23:07:41;17.13;;;3.90;;
19609;SDS011;9952;47.122;-1.638;2022-12-29T23:12:21;18.63;;;3.83;;
19609;SDS011;9952;47.122;-1.638;2022-12-29T23:17:02;20.60;;;4.40;;
19609;SDS011;9952;47.122;-1.638;2022-12-29T23:21:43;10.70;;;3.67;;
19609;SDS011;9952;47.122;-1.638;2022-12-29T23:26:27;22.57;;;4.77;;
19609;SDS011;9952;47.122;-1.638;2022-12-29T23:31:11;23.43;;;4.63;;
19609;SDS011;9952;47.122;-1.638;2022-12-29T23:35:52;27.07;;;5.00;;
19609;SDS011;9952;47.122;-1.638;2022-12-29T23:40:33;18.10;;;3.47;;
19609;SDS011;9952;47.122;-1.638;2022-12-29T23:45:13;22.43;;;4.63;;
19609;SDS011;9952;47.122;-1.638;2022-12-29T23:49:54;16.10;;;3.77;;
19609;SDS011;9952;47.122;-1.638;2022-12-29T23:54:35;21.40;;;4.93;;
19609;SDS011;9952;47.122;-1.638;2022-12-29T23:59:16;15.97;;;4.30;;
